createdAt,value
2023-02-12T00:00:33.895Z,2.70
2023-02-12T00:03:00.716Z,2.67
2023-02-12T00:05:27.531Z,3.37
2023-02-12T00:07:54.555Z,2.33
2023-02-12T00:10:21.583Z,2.83
2023-02-12T00:12:48.623Z,2.13
2023-02-12T00:15:15.509Z,3.73
2023-02-12T00:17:42.301Z,4.63
2023-02-12T00:20:09.521Z,2.27
2023-02-12T00:22:36.479Z,2.40
2023-02-12T00:25:03.834Z,2.97
2023-02-12T00:27:33.714Z,3.07
2023-02-12T00:30:00.516Z,2.50
2023-02-12T00:32:27.499Z,1.90
2023-02-12T00:35:17.875Z,5.47
2023-02-12T00:37:44.616Z,3.57
2023-02-12T00:40:11.744Z,5.70
2023-02-12T00:42:47.307Z,4.43
2023-02-12T00:45:14.231Z,3.67
2023-02-12T00:47:41.094Z,3.27
2023-02-12T00:50:08.640Z,3.97
2023-02-12T00:52:35.873Z,2.20
2023-02-12T00:55:02.839Z,3.10
2023-02-12T00:57:29.652Z,2.10
2023-02-12T00:59:56.513Z,3.17
2023-02-12T01:02:23.488Z,2.17
2023-02-12T01:04:50.337Z,5.43
2023-02-12T01:07:17.230Z,1.83
2023-02-12T01:09:44.091Z,4.53
2023-02-12T01:12:10.900Z,3.57
2023-02-12T01:14:52.083Z,1.57
2023-02-12T01:17:37.825Z,3.47
2023-02-12T01:20:27.256Z,2.73
2023-02-12T01:22:54.252Z,1.63
2023-02-12T01:25:21.204Z,1.73
2023-02-12T01:27:48.268Z,2.47
2023-02-12T01:30:16.332Z,2.17
2023-02-12T01:32:46.081Z,1.90
2023-02-12T01:35:12.941Z,2.00
2023-02-12T01:37:42.024Z,3.50
2023-02-12T01:40:15.561Z,2.47
2023-02-12T01:43:05.503Z,2.40
2023-02-12T01:48:20.606Z,1.90
2023-02-12T01:50:54.280Z,3.17
2023-02-12T01:53:29.690Z,2.23
2023-02-12T01:56:03.109Z,1.10
2023-02-12T01:58:49.182Z,3.83
2023-02-12T02:01:39.556Z,2.07
2023-02-12T02:04:22.495Z,1.63
2023-02-12T02:07:36.368Z,1.33
2023-02-12T02:10:21.098Z,1.87
2023-02-12T02:13:07.633Z,1.23
2023-02-12T02:15:47.533Z,1.67
2023-02-12T02:18:55.551Z,1.77
2023-02-12T02:21:47.363Z,1.83
2023-02-12T02:24:31.672Z,1.43
2023-02-12T02:27:15.111Z,1.97
2023-02-12T02:29:59.430Z,2.97
2023-02-12T02:32:38.463Z,1.67
2023-02-12T02:35:13.258Z,1.33
2023-02-12T02:37:48.188Z,1.63
2023-02-12T02:40:19.652Z,1.70
2023-02-12T02:42:55.562Z,1.20
2023-02-12T02:45:31.556Z,1.23
2023-02-12T02:48:10.442Z,1.13
2023-02-12T02:50:41.281Z,1.93
2023-02-12T02:53:14.092Z,1.40
2023-02-12T02:55:49.008Z,1.37
2023-02-12T02:58:22.754Z,1.57
2023-02-12T03:01:01.044Z,1.50
2023-02-12T03:03:37.845Z,4.20
2023-02-12T03:06:18.414Z,2.37
2023-02-12T03:08:52.943Z,1.07
2023-02-12T03:11:28.503Z,1.63
2023-02-12T03:14:16.711Z,2.30
2023-02-12T03:17:17.059Z,1.17
2023-02-12T03:19:50.674Z,1.57
2023-02-12T03:22:22.959Z,2.67
2023-02-12T03:24:51.775Z,1.47
2023-02-12T03:27:34.722Z,1.60
2023-02-12T03:30:03.533Z,1.67
2023-02-12T03:32:57.813Z,1.77
2023-02-12T03:35:36.469Z,1.10
2023-02-12T03:38:13.607Z,1.77
2023-02-12T03:40:53.631Z,1.23
2023-02-12T03:43:28.418Z,1.63
2023-02-12T03:46:07.283Z,2.87
2023-02-12T03:48:41.680Z,2.20
2023-02-12T03:51:21.355Z,1.10
2023-02-12T03:53:49.288Z,1.57
2023-02-12T03:56:23.026Z,1.50
2023-02-12T03:58:49.823Z,1.93
2023-02-12T04:01:17.712Z,1.70
2023-02-12T04:03:45.008Z,1.10
2023-02-12T04:06:24.291Z,2.40
2023-02-12T04:08:51.305Z,2.27
2023-02-12T04:11:31.033Z,1.60
2023-02-12T04:14:12.473Z,1.90
2023-02-12T04:16:48.539Z,1.10
2023-02-12T04:19:22.450Z,1.03
2023-02-12T04:22:12.962Z,1.70
2023-02-12T04:24:51.022Z,1.20
2023-02-12T04:27:52.212Z,1.93
2023-02-12T04:30:29.731Z,2.20
2023-02-12T04:33:02.069Z,2.60
2023-02-12T04:35:46.350Z,2.17
2023-02-12T04:38:25.334Z,2.03
2023-02-12T04:40:52.916Z,1.63
2023-02-12T04:43:37.197Z,3.13
2023-02-12T04:46:05.817Z,1.30
2023-02-12T04:48:34.560Z,2.70
2023-02-12T04:51:02.093Z,2.30
2023-02-12T04:53:29.050Z,2.03
2023-02-12T04:55:56.167Z,1.23
2023-02-12T04:58:23.128Z,1.57
2023-02-12T05:00:49.893Z,2.33
2023-02-12T05:03:16.688Z,1.80
2023-02-12T05:05:43.479Z,2.50
2023-02-12T05:08:10.266Z,3.63
2023-02-12T05:10:37.106Z,1.70
2023-02-12T05:13:03.855Z,2.30
2023-02-12T05:15:30.671Z,3.37
2023-02-12T05:17:57.507Z,3.00
2023-02-12T05:20:24.261Z,2.00
2023-02-12T05:22:54.230Z,2.90
2023-02-12T05:25:21.375Z,3.37
2023-02-12T05:27:48.498Z,1.43
2023-02-12T05:30:15.345Z,2.53
2023-02-12T05:32:42.147Z,5.37
2023-02-12T05:35:09.085Z,3.43
2023-02-12T05:37:36.542Z,3.30
2023-02-12T05:40:05.817Z,4.60
2023-02-12T05:42:32.636Z,2.47
2023-02-12T05:44:59.471Z,2.13
2023-02-12T05:47:26.271Z,1.90
2023-02-12T05:49:53.043Z,4.67
2023-02-12T05:52:19.876Z,2.77
2023-02-12T05:54:50.296Z,2.30
2023-02-12T05:57:17.178Z,2.93
2023-02-12T05:59:43.968Z,2.23
2023-02-12T06:02:10.726Z,2.77
2023-02-12T06:04:37.546Z,1.83
2023-02-12T06:07:04.341Z,2.70
2023-02-12T06:09:31.144Z,2.17
2023-02-12T06:11:57.916Z,3.83
2023-02-12T06:14:24.710Z,2.20
2023-02-12T06:16:52.488Z,2.23
2023-02-12T06:19:20.164Z,2.73
2023-02-12T06:21:47.246Z,3.07
2023-02-12T06:24:15.820Z,2.07
2023-02-12T06:26:42.939Z,1.77
2023-02-12T06:29:10.152Z,2.27
2023-02-12T06:31:37.945Z,4.70
2023-02-12T06:34:07.966Z,3.70
2023-02-12T06:36:37.697Z,4.10
2023-02-12T06:39:04.720Z,2.87
2023-02-12T06:41:31.675Z,2.97
2023-02-12T06:43:58.614Z,3.10
2023-02-12T06:46:25.629Z,2.97
2023-02-12T06:48:57.198Z,3.13
2023-02-12T06:51:25.408Z,3.57
2023-02-12T06:53:53.463Z,3.10
2023-02-12T06:56:21.897Z,3.47
2023-02-12T06:58:55.825Z,2.90
2023-02-12T07:01:25.148Z,6.20
2023-02-12T07:04:02.874Z,4.07
2023-02-12T07:06:31.361Z,2.80
2023-02-12T07:08:58.570Z,2.80
2023-02-12T07:11:26.575Z,3.97
2023-02-12T07:13:53.667Z,2.53
2023-02-12T07:16:21.151Z,3.27
2023-02-12T07:18:48.418Z,2.70
2023-02-12T07:21:16.181Z,2.80
2023-02-12T07:23:50.519Z,2.97
2023-02-12T07:26:19.198Z,2.83
2023-02-12T07:28:45.979Z,3.63
2023-02-12T07:31:17.119Z,6.83
2023-02-12T07:33:44.405Z,2.50
2023-02-12T07:36:14.013Z,4.63
2023-02-12T07:38:41.265Z,4.47
2023-02-12T07:41:18.329Z,3.00
2023-02-12T07:43:47.476Z,2.83
2023-02-12T07:46:18.057Z,3.60
2023-02-12T07:48:46.248Z,4.47
2023-02-12T07:51:16.308Z,4.00
2023-02-12T07:53:43.452Z,5.27
2023-02-12T07:56:24.969Z,3.97
2023-02-12T07:58:53.644Z,11.33
2023-02-12T08:01:23.156Z,2.87
2023-02-12T08:03:51.505Z,3.63
2023-02-12T08:06:21.480Z,2.00
2023-02-12T08:08:48.550Z,3.00
2023-02-12T08:11:15.851Z,2.27
2023-02-12T08:13:42.702Z,2.17
2023-02-12T08:16:12.659Z,3.57
2023-02-12T08:18:39.726Z,3.47
2023-02-12T08:21:13.156Z,4.33
2023-02-12T08:23:40.301Z,3.90
2023-02-12T08:26:16.061Z,3.57
2023-02-12T08:28:49.335Z,4.13
2023-02-12T08:31:20.242Z,2.90
2023-02-12T08:33:48.594Z,3.87
2023-02-12T08:36:18.337Z,2.53
2023-02-12T08:38:46.031Z,3.37
2023-02-12T08:41:15.485Z,3.80
2023-02-12T08:43:43.024Z,8.60
2023-02-12T08:46:15.689Z,3.60
2023-02-12T08:48:43.368Z,3.80
2023-02-12T08:51:15.877Z,3.30
2023-02-12T08:53:45.242Z,4.23
2023-02-12T08:56:14.542Z,9.80
2023-02-12T08:58:41.858Z,5.53
2023-02-12T09:01:16.216Z,6.70
2023-02-12T09:03:45.179Z,7.27
2023-02-12T09:06:13.057Z,3.47
2023-02-12T09:08:40.495Z,4.50
2023-02-12T09:11:12.739Z,3.83
2023-02-12T09:13:40.961Z,3.73
2023-02-12T09:16:07.834Z,2.87
2023-02-12T09:18:35.243Z,4.27
2023-02-12T09:21:08.081Z,4.20
2023-02-12T09:23:35.588Z,3.27
2023-02-12T09:26:07.693Z,3.90
2023-02-12T09:28:35.417Z,4.10
2023-02-12T09:31:07.625Z,3.70
2023-02-12T09:33:34.929Z,3.93
2023-02-12T09:36:03.853Z,3.63
2023-02-12T09:38:30.885Z,4.13
2023-02-12T09:41:24.802Z,3.90
2023-02-12T09:43:56.861Z,3.50
2023-02-12T09:46:35.524Z,3.13
2023-02-12T09:49:21.482Z,5.60
2023-02-12T09:51:53.917Z,7.73
2023-02-12T09:54:28.596Z,11.43
2023-02-12T09:56:58.869Z,4.60
2023-02-12T09:59:56.244Z,4.43
2023-02-12T10:02:24.280Z,4.87
2023-02-12T10:05:01.158Z,4.23
2023-02-12T10:08:06.501Z,3.17
2023-02-12T10:10:53.545Z,4.50
2023-02-12T10:13:53.780Z,4.00
2023-02-12T10:16:42.424Z,3.57
2023-02-12T10:19:46.254Z,4.40
2023-02-12T10:22:31.148Z,3.83
2023-02-12T10:25:26.050Z,3.47
2023-02-12T10:27:56.185Z,4.07
2023-02-12T10:30:35.579Z,4.23
2023-02-12T10:33:12.249Z,4.27
2023-02-12T10:35:44.769Z,4.73
2023-02-12T10:38:20.168Z,2.93
2023-02-12T10:40:50.465Z,3.23
2023-02-12T10:43:17.854Z,4.00
2023-02-12T10:45:44.837Z,5.23
2023-02-12T10:48:16.617Z,3.27
2023-02-12T10:51:09.177Z,4.83
2023-02-12T10:53:43.379Z,4.77
2023-02-12T10:56:13.320Z,4.17
2023-02-12T10:58:50.406Z,5.03
2023-02-12T11:01:47.184Z,4.57
2023-02-12T11:04:33.748Z,5.50
2023-02-12T11:07:06.517Z,3.83
2023-02-12T11:09:45.412Z,4.13
2023-02-12T11:12:26.266Z,5.77
2023-02-12T11:14:55.938Z,5.50
2023-02-12T11:17:39.634Z,5.40
2023-02-12T11:20:18.287Z,4.73
2023-02-12T11:23:00.683Z,6.57
2023-02-12T11:25:31.562Z,5.57
2023-02-12T11:28:04.307Z,5.47
2023-02-12T11:30:31.442Z,6.53
2023-02-12T11:33:29.802Z,6.97
2023-02-12T11:36:06.948Z,5.50
2023-02-12T11:38:47.689Z,6.73
2023-02-12T11:41:23.450Z,5.73
2023-02-12T11:43:52.156Z,5.27
2023-02-12T11:46:22.367Z,5.53
2023-02-12T11:48:50.941Z,6.30
2023-02-12T11:51:26.674Z,6.20
2023-02-12T11:53:57.305Z,6.67
2023-02-12T11:56:24.114Z,7.13
2023-02-12T11:58:52.073Z,6.20
2023-02-12T12:01:38.959Z,6.60
2023-02-12T12:04:16.279Z,9.87
2023-02-12T12:07:06.017Z,5.43
2023-02-12T12:09:52.462Z,5.70
2023-02-12T12:12:43.525Z,5.83
2023-02-12T12:15:51.410Z,6.63
2023-02-12T12:19:02.016Z,7.03
2023-02-12T12:22:00.559Z,6.87
2023-02-12T12:24:53.499Z,11.33
2023-02-12T12:28:06.487Z,8.37
2023-02-12T12:30:33.467Z,6.50
2023-02-12T12:33:03.668Z,5.50
2023-02-12T12:35:45.577Z,6.20
2023-02-12T12:38:53.378Z,6.20
2023-02-12T12:41:33.996Z,5.67
2023-02-12T12:44:12.421Z,7.57
2023-02-12T12:46:56.713Z,6.43
2023-02-12T12:49:55.827Z,7.17
2023-02-12T12:52:40.183Z,6.03
2023-02-12T12:55:44.802Z,6.53
2023-02-12T12:58:39.382Z,6.37
2023-02-12T13:01:43.855Z,6.40
2023-02-12T13:04:28.710Z,6.60
2023-02-12T13:07:10.910Z,6.40
2023-02-12T13:09:46.891Z,6.43
2023-02-12T13:12:13.843Z,5.80
2023-02-12T13:15:18.881Z,7.13
2023-02-12T13:17:55.525Z,8.02
2023-02-12T13:20:26.771Z,8.33
2023-02-12T13:23:01.481Z,8.37
2023-02-12T13:25:49.377Z,7.30
2023-02-12T13:28:26.107Z,7.37
2023-02-12T13:30:56.167Z,6.23
2023-02-12T13:33:27.745Z,7.30
2023-02-12T13:36:00.465Z,6.10
2023-02-12T13:38:33.262Z,6.20
2023-02-12T13:41:07.105Z,6.27
2023-02-12T13:43:46.684Z,7.00
2023-02-12T13:46:41.845Z,6.97
2023-02-12T13:49:18.705Z,7.23
2023-02-12T13:52:02.949Z,7.57
2023-02-12T13:54:51.303Z,6.23
2023-02-12T13:57:20.348Z,7.40
2023-02-12T13:59:59.900Z,6.70
2023-02-12T14:02:38.768Z,5.97
2023-02-12T14:05:29.329Z,8.13
2023-02-12T14:07:59.520Z,5.73
2023-02-12T14:10:31.142Z,7.23
2023-02-12T14:13:10.842Z,7.87
2023-02-12T14:15:44.487Z,8.37
2023-02-12T14:18:33.609Z,7.67
2023-02-12T14:21:12.473Z,5.80
2023-02-12T14:23:46.996Z,7.90
2023-02-12T14:26:16.201Z,10.17
2023-02-12T14:29:01.870Z,8.97
2023-02-12T14:31:38.763Z,6.70
2023-02-12T14:34:05.609Z,13.10
2023-02-12T14:36:32.440Z,10.07
2023-02-12T14:39:05.082Z,8.23
2023-02-12T14:41:37.987Z,8.23
2023-02-12T14:44:21.545Z,9.43
2023-02-12T14:46:53.006Z,9.00
2023-02-12T14:49:34.145Z,8.73
2023-02-12T14:52:26.602Z,9.27
2023-02-12T14:54:57.571Z,9.40
2023-02-12T14:57:27.549Z,9.40
2023-02-12T15:00:17.174Z,9.30
2023-02-12T15:02:51.525Z,8.17
2023-02-12T15:05:37.969Z,9.90
2023-02-12T15:08:18.817Z,8.40
2023-02-12T15:10:53.964Z,10.87
2023-02-12T15:13:23.549Z,7.97
2023-02-12T15:16:07.244Z,11.70
2023-02-12T15:19:18.653Z,11.00
2023-02-12T15:21:46.266Z,10.33
2023-02-12T15:24:21.324Z,13.27
2023-02-12T15:26:51.078Z,10.80
2023-02-12T15:29:39.268Z,13.57
2023-02-12T15:32:09.893Z,12.10
2023-02-12T15:34:40.113Z,11.30
2023-02-12T15:37:08.338Z,12.10
2023-02-12T15:39:43.723Z,11.73
2023-02-12T15:42:27.436Z,13.67
2023-02-12T15:45:06.136Z,12.13
2023-02-12T15:47:34.779Z,12.90
2023-02-12T15:50:01.811Z,11.57
2023-02-12T15:52:35.322Z,14.40
2023-02-12T15:55:06.696Z,14.93
2023-02-12T15:57:33.982Z,14.90
2023-02-12T16:00:24.648Z,15.27
2023-02-12T16:02:54.496Z,19.00
2023-02-12T16:05:22.588Z,19.70
2023-02-12T16:07:50.199Z,19.83
2023-02-12T16:10:19.757Z,19.10
2023-02-12T16:12:48.210Z,20.73
2023-02-12T16:15:35.398Z,18.83
2023-02-12T16:18:05.159Z,20.07
2023-02-12T16:20:32.326Z,20.13
2023-02-12T16:23:04.990Z,20.73
2023-02-12T16:25:35.379Z,20.43
2023-02-12T16:28:26.348Z,19.43
2023-02-12T16:30:53.540Z,18.40
2023-02-12T16:33:39.008Z,21.63
2023-02-12T16:36:23.833Z,17.67
2023-02-12T16:38:54.701Z,20.00
2023-02-12T16:41:27.674Z,19.17
2023-02-12T16:43:54.573Z,19.67
2023-02-12T16:46:22.475Z,20.23
2023-02-12T16:48:52.123Z,21.40
2023-02-12T16:51:32.078Z,19.50
2023-02-12T16:54:01.244Z,21.57
2023-02-12T16:56:34.407Z,22.60
2023-02-12T16:59:01.820Z,22.27
2023-02-12T17:01:32.018Z,21.60
2023-02-12T17:04:01.940Z,21.57
2023-02-12T17:06:31.905Z,23.13
2023-02-12T17:08:59.469Z,23.47
2023-02-12T17:11:28.395Z,25.50
2023-02-12T17:13:56.942Z,22.00
2023-02-12T17:16:30.669Z,23.63
2023-02-12T17:18:59.146Z,23.67
2023-02-12T17:21:38.283Z,23.30
2023-02-12T17:24:09.731Z,23.37
2023-02-12T17:26:36.560Z,23.97
2023-02-12T17:29:05.536Z,25.13
2023-02-12T17:31:34.052Z,22.97
2023-02-12T17:34:01.579Z,23.33
2023-02-12T17:36:28.474Z,24.23
2023-02-12T17:38:55.347Z,24.80
2023-02-12T17:41:22.226Z,25.90
2023-02-12T17:43:49.038Z,26.97
2023-02-12T17:46:21.833Z,26.80
2023-02-12T17:48:48.775Z,29.07
2023-02-12T17:51:16.114Z,30.43
2023-02-12T17:53:43.228Z,27.97
2023-02-12T17:56:12.312Z,30.60
2023-02-12T17:58:42.833Z,30.40
2023-02-12T18:01:12.746Z,33.80
2023-02-12T18:03:40.358Z,28.83
2023-02-12T18:06:08.446Z,29.73
2023-02-12T18:08:35.607Z,29.53
2023-02-12T18:11:06.821Z,28.83
2023-02-12T18:13:38.193Z,29.63
2023-02-12T18:16:11.310Z,33.50
2023-02-12T18:18:40.172Z,30.07
2023-02-12T18:21:08.957Z,29.03
2023-02-12T18:23:35.766Z,29.50
2023-02-12T18:26:09.982Z,31.67
2023-02-12T18:28:37.402Z,32.70
2023-02-12T18:31:05.542Z,34.80
2023-02-12T18:33:33.054Z,32.03
2023-02-12T18:36:07.783Z,34.13
2023-02-12T18:38:35.864Z,34.10
2023-02-12T18:41:24.821Z,38.73
2023-02-12T18:43:52.062Z,32.87
2023-02-12T18:46:24.401Z,33.60
2023-02-12T18:48:51.665Z,33.67
2023-02-12T18:51:22.317Z,31.50
2023-02-12T18:54:01.299Z,35.93
2023-02-12T18:56:35.184Z,34.87
2023-02-12T18:59:04.942Z,32.30
2023-02-12T19:01:33.098Z,33.93
2023-02-12T19:04:01.988Z,28.50
2023-02-12T19:06:30.373Z,36.43
2023-02-12T19:08:58.877Z,32.70
2023-02-12T19:11:27.361Z,29.37
2023-02-12T19:13:54.253Z,30.60
2023-02-12T19:16:23.794Z,31.63
2023-02-12T19:18:54.670Z,35.10
2023-02-12T19:21:23.276Z,32.60
2023-02-12T19:23:56.272Z,31.60
2023-02-12T19:26:24.105Z,33.27
2023-02-12T19:28:51.042Z,35.20
2023-02-12T19:31:20.928Z,35.30
2023-02-12T19:33:49.275Z,32.47
2023-02-12T19:36:19.197Z,33.87
2023-02-12T19:38:47.657Z,33.90
2023-02-12T19:41:17.757Z,33.90
2023-02-12T19:43:44.965Z,34.63
2023-02-12T19:46:18.598Z,32.37
2023-02-12T19:48:47.490Z,30.97
2023-02-12T19:51:16.418Z,34.60
2023-02-12T19:53:45.410Z,33.73
2023-02-12T19:56:12.706Z,31.10
2023-02-12T19:58:40.095Z,31.20
2023-02-12T20:01:18.681Z,30.23
2023-02-12T20:03:47.219Z,28.87
2023-02-12T20:06:17.978Z,32.07
2023-02-12T20:08:45.214Z,33.43
2023-02-12T20:11:15.572Z,29.87
2023-02-12T20:13:42.939Z,30.67
2023-02-12T20:16:16.167Z,32.67
2023-02-12T20:18:44.844Z,32.57
2023-02-12T20:21:15.769Z,33.37
2023-02-12T20:23:44.728Z,33.37
2023-02-12T20:26:14.228Z,32.40
2023-02-12T20:28:42.942Z,33.33
2023-02-12T20:31:14.802Z,33.57
2023-02-12T20:33:42.272Z,33.13
2023-02-12T20:36:11.416Z,32.67
2023-02-12T20:38:39.717Z,32.70
2023-02-12T20:41:07.761Z,31.03
2023-02-12T20:43:39.109Z,32.20
2023-02-12T20:46:17.488Z,34.37
2023-02-12T20:48:45.035Z,31.77
2023-02-12T20:51:15.048Z,35.37
2023-02-12T20:53:42.804Z,31.93
2023-02-12T20:56:15.597Z,33.00
2023-02-12T20:58:44.999Z,29.67
2023-02-12T21:01:26.742Z,32.27
2023-02-12T21:03:55.196Z,32.17
2023-02-12T21:06:23.808Z,31.53
2023-02-12T21:08:52.370Z,35.27
2023-02-12T21:11:22.764Z,35.43
2023-02-12T21:13:58.965Z,31.10
2023-02-12T21:16:38.545Z,35.47
2023-02-12T21:19:05.891Z,33.33
2023-02-12T21:21:35.604Z,29.83
2023-02-12T21:24:06.709Z,31.73
2023-02-12T21:26:34.475Z,31.17
2023-02-12T21:29:02.308Z,29.27
2023-02-12T21:31:31.982Z,31.27
2023-02-12T21:34:00.953Z,31.67
2023-02-12T21:36:36.720Z,33.07
2023-02-12T21:39:05.269Z,29.67
2023-02-12T21:41:35.635Z,32.27
2023-02-12T21:44:15.130Z,31.77
2023-02-12T21:46:42.437Z,37.53
2023-02-12T21:49:09.344Z,33.37
2023-02-12T21:51:39.137Z,34.30
2023-02-12T21:54:08.701Z,34.33
2023-02-12T21:56:40.680Z,33.53
2023-02-12T21:59:08.775Z,37.50
2023-02-12T22:01:38.275Z,37.53
2023-02-12T22:04:07.049Z,40.67
2023-02-12T22:06:38.007Z,42.47
2023-02-12T22:09:08.009Z,42.67
2023-02-12T22:11:39.956Z,43.63
2023-02-12T22:14:08.378Z,42.33
2023-02-12T22:16:36.750Z,46.10
2023-02-12T22:19:05.346Z,44.73
2023-02-12T22:21:36.564Z,45.40
2023-02-12T22:24:05.479Z,44.53
2023-02-12T22:26:33.148Z,40.77
2023-02-12T22:29:05.853Z,44.27
2023-02-12T22:31:35.011Z,45.57
2023-02-12T22:34:06.270Z,42.30
2023-02-12T22:36:35.746Z,47.27
2023-02-12T22:39:03.567Z,45.03
2023-02-12T22:41:30.800Z,49.47
2023-02-12T22:44:02.191Z,50.07
2023-02-12T22:46:29.058Z,50.13
2023-02-12T22:48:55.921Z,45.90
2023-02-12T22:51:30.018Z,45.30
2023-02-12T22:53:57.182Z,49.57
2023-02-12T22:56:24.464Z,47.97
2023-02-12T22:58:59.768Z,43.33
2023-02-12T23:01:27.628Z,46.13
2023-02-12T23:03:54.879Z,49.93
2023-02-12T23:06:24.704Z,47.83
2023-02-12T23:08:53.994Z,51.77
2023-02-12T23:11:21.247Z,41.13
2023-02-12T23:13:48.119Z,40.63
2023-02-12T23:16:15.249Z,46.40
2023-02-12T23:18:42.475Z,43.97
2023-02-12T23:21:09.573Z,45.57
2023-02-12T23:23:36.492Z,48.93
2023-02-12T23:26:03.388Z,48.73
2023-02-12T23:28:31.438Z,40.77
2023-02-12T23:30:59.065Z,43.47
2023-02-12T23:33:26.090Z,43.17
2023-02-12T23:35:52.884Z,42.87
2023-02-12T23:38:19.654Z,38.70
2023-02-12T23:40:48.021Z,43.73
2023-02-12T23:43:15.087Z,38.40
2023-02-12T23:45:44.497Z,40.97
2023-02-12T23:48:11.542Z,40.90
2023-02-12T23:50:38.373Z,37.67
2023-02-12T23:53:05.319Z,40.03
2023-02-12T23:55:32.089Z,41.43
2023-02-12T23:57:58.871Z,46.53
